createdAt,value
2022-11-20T00:00:05.437Z,14.60
2022-11-20T00:02:33.006Z,13.37
2022-11-20T00:05:00.547Z,13.43
2022-11-20T00:07:28.049Z,13.83
2022-11-20T00:09:55.529Z,13.00
2022-11-20T00:12:22.951Z,14.03
2022-11-20T00:14:50.449Z,13.73
2022-11-20T00:17:17.924Z,13.57
2022-11-20T00:19:45.430Z,14.00
2022-11-20T00:22:12.896Z,14.87
2022-11-20T00:24:43.027Z,12.63
2022-11-20T00:27:10.908Z,13.70
2022-11-20T00:29:38.337Z,13.67
2022-11-20T00:32:05.942Z,13.57
2022-11-20T00:34:33.393Z,13.77
2022-11-20T00:37:00.971Z,13.27
2022-11-20T00:39:28.427Z,14.47
2022-11-20T00:41:55.921Z,14.43
2022-11-20T00:44:23.350Z,14.57
2022-11-20T00:46:50.854Z,13.57
2022-11-20T00:49:18.458Z,14.47
2022-11-20T00:51:46.190Z,14.07
2022-11-20T00:54:13.582Z,14.10
2022-11-20T00:56:41.016Z,14.73
2022-11-20T00:59:10.403Z,14.07
2022-11-20T01:01:38.492Z,14.30
2022-11-20T01:04:06.453Z,13.37
2022-11-20T01:06:35.741Z,13.53
2022-11-20T01:09:05.154Z,14.30
2022-11-20T01:11:35.730Z,15.57
2022-11-20T01:14:04.255Z,15.60
2022-11-20T01:16:35.957Z,16.00
2022-11-20T01:19:04.722Z,15.07
2022-11-20T01:21:33.337Z,15.87
2022-11-20T01:24:01.353Z,15.57
2022-11-20T01:26:30.552Z,16.13
2022-11-20T01:28:58.515Z,15.63
2022-11-20T01:31:27.410Z,15.73
2022-11-20T01:33:58.030Z,15.10
2022-11-20T01:36:27.457Z,14.23
2022-11-20T01:38:55.811Z,15.73
2022-11-20T01:41:23.882Z,13.70
2022-11-20T01:43:51.294Z,14.33
2022-11-20T01:46:20.118Z,15.23
2022-11-20T01:49:06.008Z,13.87
2022-11-20T01:51:41.355Z,13.47
2022-11-20T01:54:11.284Z,14.10
2022-11-20T01:56:40.017Z,14.70
2022-11-20T01:59:08.845Z,15.23
2022-11-20T02:01:36.553Z,13.87
2022-11-20T02:04:04.259Z,15.40
2022-11-20T02:06:33.543Z,14.23
2022-11-20T02:09:01.028Z,12.90
2022-11-20T02:11:28.465Z,14.27
2022-11-20T02:13:56.061Z,14.83
2022-11-20T02:16:26.298Z,14.63
2022-11-20T02:18:55.105Z,14.40
2022-11-20T02:21:38.676Z,16.30
2022-11-20T02:24:06.267Z,14.47
2022-11-20T02:26:36.407Z,12.20
2022-11-20T02:29:04.384Z,14.60
2022-11-20T02:31:38.574Z,12.43
2022-11-20T02:34:06.030Z,14.93
2022-11-20T02:36:34.185Z,14.30
2022-11-20T02:39:01.727Z,15.57
2022-11-20T02:41:32.786Z,17.53
2022-11-20T02:44:00.285Z,15.33
2022-11-20T02:46:28.333Z,16.23
2022-11-20T02:48:55.829Z,15.30
2022-11-20T02:51:23.486Z,16.27
2022-11-20T02:53:50.923Z,16.23
2022-11-20T02:56:18.364Z,17.30
2022-11-20T02:58:45.835Z,16.70
2022-11-20T03:01:13.498Z,16.53
2022-11-20T03:03:40.980Z,16.90
2022-11-20T03:06:08.783Z,16.97
2022-11-20T03:08:36.356Z,16.63
2022-11-20T03:11:04.828Z,16.80
2022-11-20T03:13:32.282Z,17.73
2022-11-20T03:15:59.719Z,17.97
2022-11-20T03:18:29.239Z,16.77
2022-11-20T03:20:59.955Z,17.13
2022-11-20T03:23:27.552Z,17.80
2022-11-20T03:25:54.950Z,17.47
2022-11-20T03:28:22.443Z,16.93
2022-11-20T03:30:49.894Z,17.47
2022-11-20T03:33:17.348Z,17.57
2022-11-20T03:35:44.809Z,17.17
2022-11-20T03:38:12.413Z,16.00
2022-11-20T03:40:39.861Z,17.17
2022-11-20T03:43:07.280Z,16.67
2022-11-20T03:45:34.886Z,17.07
2022-11-20T03:48:02.324Z,17.67
2022-11-20T03:50:29.853Z,18.27
2022-11-20T03:52:57.506Z,17.70
2022-11-20T03:55:24.972Z,18.43
2022-11-20T03:57:52.426Z,17.60
2022-11-20T04:00:19.938Z,17.73
2022-11-20T04:02:47.803Z,17.93
2022-11-20T04:05:15.350Z,17.70
2022-11-20T04:07:42.840Z,17.97
2022-11-20T04:10:10.606Z,18.43
2022-11-20T04:12:38.087Z,17.83
2022-11-20T04:15:05.716Z,17.90
2022-11-20T04:17:33.189Z,17.33
2022-11-20T04:20:00.649Z,18.43
2022-11-20T04:22:28.404Z,18.33
2022-11-20T04:24:55.830Z,17.47
2022-11-20T04:27:23.273Z,17.87
2022-11-20T04:29:50.747Z,17.63
2022-11-20T04:32:18.294Z,19.17
2022-11-20T04:34:45.724Z,17.07
2022-11-20T04:37:13.129Z,17.30
2022-11-20T04:39:40.546Z,17.33
2022-11-20T04:42:09.984Z,18.03
2022-11-20T04:44:37.649Z,18.10
2022-11-20T04:47:05.121Z,17.87
2022-11-20T04:49:33.460Z,17.80
2022-11-20T04:52:00.993Z,19.20
2022-11-20T04:54:28.576Z,19.13
2022-11-20T04:56:56.062Z,18.17
2022-11-20T04:59:23.904Z,17.23
2022-11-20T05:01:51.690Z,19.83
2022-11-20T05:04:19.237Z,17.83
2022-11-20T05:06:46.744Z,17.63
2022-11-20T05:09:14.366Z,17.40
2022-11-20T05:11:41.870Z,18.20
2022-11-20T05:14:09.439Z,16.77
2022-11-20T05:16:36.922Z,16.40
2022-11-20T05:19:04.362Z,18.10
2022-11-20T05:21:32.315Z,15.63
2022-11-20T05:23:59.767Z,17.87
2022-11-20T05:26:27.207Z,17.00
2022-11-20T05:28:54.687Z,17.73
2022-11-20T05:31:28.104Z,17.33
2022-11-20T05:33:56.944Z,17.77
2022-11-20T05:36:24.422Z,16.73
2022-11-20T05:38:55.452Z,17.20
2022-11-20T05:41:24.277Z,16.77
2022-11-20T05:43:52.105Z,17.43
2022-11-20T05:46:26.486Z,16.90
2022-11-20T05:48:56.045Z,16.63
2022-11-20T05:51:23.557Z,16.90
2022-11-20T05:53:51.161Z,17.60
2022-11-20T05:56:19.615Z,17.53
2022-11-20T05:58:47.410Z,16.57
2022-11-20T06:01:20.681Z,18.53
2022-11-20T06:03:48.616Z,17.53
2022-11-20T06:06:16.941Z,17.67
2022-11-20T06:08:45.013Z,16.83
2022-11-20T06:11:13.203Z,17.33
2022-11-20T06:13:42.472Z,16.60
2022-11-20T06:16:11.091Z,17.00
2022-11-20T06:18:38.909Z,17.00
2022-11-20T06:21:08.229Z,16.43
2022-11-20T06:23:36.540Z,17.07
2022-11-20T06:26:08.227Z,16.93
2022-11-20T06:28:36.103Z,17.67
2022-11-20T06:31:03.621Z,16.80
2022-11-20T06:33:31.513Z,17.60
2022-11-20T06:36:01.626Z,17.03
2022-11-20T06:38:31.697Z,17.10
2022-11-20T06:40:59.472Z,16.83
2022-11-20T06:43:30.097Z,16.50
2022-11-20T06:45:58.228Z,18.40
2022-11-20T06:48:26.866Z,17.80
2022-11-20T06:50:57.564Z,18.33
2022-11-20T06:53:25.481Z,17.30
2022-11-20T06:55:53.348Z,17.77
2022-11-20T06:58:21.375Z,19.50
2022-11-20T07:00:48.843Z,18.30
2022-11-20T07:03:16.323Z,18.53
2022-11-20T07:05:43.764Z,18.80
2022-11-20T07:08:11.310Z,17.67
2022-11-20T07:10:38.745Z,18.17
2022-11-20T07:13:06.399Z,18.57
2022-11-20T07:15:34.086Z,19.53
2022-11-20T07:18:01.840Z,18.27
2022-11-20T07:20:29.512Z,17.87
2022-11-20T07:22:57.597Z,17.67
2022-11-20T07:25:25.809Z,17.97
2022-11-20T07:27:53.352Z,18.97
2022-11-20T07:30:20.787Z,20.13
2022-11-20T07:32:49.033Z,18.90
2022-11-20T07:35:16.536Z,18.23
2022-11-20T07:37:44.004Z,19.80
2022-11-20T07:40:11.801Z,19.53
2022-11-20T07:42:39.271Z,18.70
2022-11-20T07:45:07.013Z,18.37
2022-11-20T07:47:37.877Z,18.07
2022-11-20T07:50:05.540Z,18.87
2022-11-20T07:52:32.977Z,18.00
2022-11-20T07:55:00.402Z,18.93
2022-11-20T07:57:28.561Z,19.77
2022-11-20T07:59:56.161Z,19.70
2022-11-20T08:02:23.639Z,20.27
2022-11-20T08:04:51.069Z,21.67
2022-11-20T08:07:18.590Z,19.17
2022-11-20T08:09:46.134Z,19.97
2022-11-20T08:12:21.042Z,18.30
2022-11-20T08:14:48.459Z,19.13
2022-11-20T08:17:18.913Z,18.70
2022-11-20T08:19:47.639Z,18.00
2022-11-20T08:22:15.109Z,17.53
2022-11-20T08:24:42.630Z,17.33
2022-11-20T08:27:10.064Z,17.90
2022-11-20T08:29:37.584Z,17.53
2022-11-20T08:32:05.202Z,16.50
2022-11-20T08:34:32.731Z,17.53
2022-11-20T08:37:00.251Z,18.70
2022-11-20T08:39:27.773Z,17.13
2022-11-20T08:41:55.213Z,17.47
2022-11-20T08:44:22.734Z,17.73
2022-11-20T08:46:50.188Z,17.60
2022-11-20T08:49:19.385Z,17.67
2022-11-20T08:51:46.991Z,17.43
2022-11-20T08:54:14.669Z,17.10
2022-11-20T08:56:42.236Z,17.00
2022-11-20T08:59:26.958Z,16.67
2022-11-20T09:01:57.182Z,17.20
2022-11-20T09:04:24.750Z,17.50
2022-11-20T09:06:52.310Z,17.17
2022-11-20T09:09:20.020Z,16.53
2022-11-20T09:11:47.752Z,16.53
2022-11-20T09:14:15.279Z,16.70
2022-11-20T09:16:42.797Z,16.93
2022-11-20T09:21:59.871Z,16.10
2022-11-20T09:24:28.046Z,18.07
2022-11-20T09:26:55.759Z,17.03
2022-11-20T09:29:24.079Z,15.83
2022-11-20T09:31:51.647Z,16.43
2022-11-20T09:34:19.091Z,17.37
2022-11-20T09:36:46.581Z,16.43
2022-11-20T09:39:14.092Z,17.77
2022-11-20T09:42:00.342Z,18.50
2022-11-20T09:44:54.217Z,16.80
2022-11-20T09:47:24.911Z,17.03
2022-11-20T09:50:01.426Z,17.47
2022-11-20T09:52:51.466Z,17.50
2022-11-20T09:55:19.119Z,18.07
2022-11-20T09:57:48.651Z,17.13
2022-11-20T10:00:17.171Z,15.70
2022-11-20T10:02:44.644Z,16.63
2022-11-20T10:05:27.604Z,17.73
2022-11-20T10:07:55.296Z,19.07
2022-11-20T10:10:57.997Z,19.30
2022-11-20T10:13:41.605Z,18.20
2022-11-20T10:16:27.884Z,19.47
2022-11-20T10:19:18.414Z,18.57
2022-11-20T10:21:58.148Z,18.93
2022-11-20T10:24:25.699Z,18.53
2022-11-20T10:27:05.526Z,20.00
2022-11-20T10:29:36.685Z,21.13
2022-11-20T10:32:05.955Z,21.83
2022-11-20T10:34:39.154Z,19.47
2022-11-20T10:37:26.927Z,17.90
2022-11-20T10:40:13.118Z,19.20
2022-11-20T10:42:45.062Z,19.90
2022-11-20T10:45:30.452Z,20.30
2022-11-20T10:48:17.657Z,20.30
2022-11-20T10:51:11.570Z,20.60
2022-11-20T10:53:45.204Z,22.23
2022-11-20T10:56:31.157Z,20.20
2022-11-20T10:59:04.778Z,20.13
2022-11-20T11:01:32.602Z,19.73
2022-11-20T11:04:00.124Z,19.00
2022-11-20T11:06:42.728Z,19.73
2022-11-20T11:09:23.509Z,17.80
2022-11-20T11:11:51.306Z,19.57
2022-11-20T11:14:18.795Z,19.63
2022-11-20T11:16:59.165Z,19.70
2022-11-20T11:19:26.642Z,18.80
2022-11-20T11:21:56.062Z,17.93
2022-11-20T11:24:42.113Z,18.50
2022-11-20T11:27:17.191Z,18.27
2022-11-20T11:29:45.778Z,18.20
2022-11-20T11:32:14.869Z,18.13
2022-11-20T11:34:42.725Z,17.00
2022-11-20T11:37:21.301Z,17.23
2022-11-20T11:39:55.135Z,18.07
2022-11-20T11:42:27.316Z,16.30
2022-11-20T11:44:56.186Z,17.03
2022-11-20T11:47:34.115Z,15.80
2022-11-20T11:50:04.468Z,17.57
2022-11-20T11:52:33.577Z,15.30
2022-11-20T11:55:10.035Z,15.33
2022-11-20T11:57:45.668Z,17.03
2022-11-20T12:00:17.091Z,16.03
2022-11-20T12:02:47.675Z,16.47
2022-11-20T12:05:21.208Z,16.40
2022-11-20T12:07:48.706Z,17.17
2022-11-20T12:10:34.430Z,16.83
2022-11-20T12:13:05.794Z,15.87
2022-11-20T12:15:35.825Z,16.20
2022-11-20T12:18:03.432Z,14.67
2022-11-20T12:20:34.760Z,15.00
2022-11-20T12:23:02.266Z,15.00
2022-11-20T12:25:31.851Z,15.00
2022-11-20T12:27:59.509Z,15.77
2022-11-20T12:30:27.286Z,14.00
2022-11-20T12:32:57.146Z,14.30
2022-11-20T12:35:40.516Z,15.83
2022-11-20T12:38:17.080Z,14.63
2022-11-20T12:41:03.122Z,14.50
2022-11-20T12:43:32.415Z,14.57
2022-11-20T12:46:20.339Z,14.93
2022-11-20T12:49:00.015Z,15.00
2022-11-20T12:51:38.046Z,14.67
2022-11-20T12:54:24.157Z,15.00
2022-11-20T12:57:10.710Z,14.77
2022-11-20T12:59:43.976Z,15.80
2022-11-20T13:02:11.432Z,15.63
2022-11-20T13:04:38.830Z,15.43
2022-11-20T13:07:13.826Z,15.40
2022-11-20T13:09:47.584Z,17.07
2022-11-20T13:12:30.435Z,16.57
2022-11-20T13:15:07.195Z,14.87
2022-11-20T13:17:50.136Z,16.73
2022-11-20T13:20:19.169Z,16.80
2022-11-20T13:22:50.655Z,17.27
2022-11-20T13:25:28.588Z,16.03
2022-11-20T13:27:57.117Z,17.03
2022-11-20T13:30:25.673Z,16.90
2022-11-20T13:32:53.163Z,17.07
2022-11-20T13:35:29.177Z,16.23
2022-11-20T13:38:03.024Z,17.07
2022-11-20T13:40:30.743Z,17.40
2022-11-20T13:43:10.313Z,17.30
2022-11-20T13:45:37.966Z,16.23
2022-11-20T13:48:06.640Z,17.13
2022-11-20T13:50:37.250Z,17.53
2022-11-20T13:53:23.366Z,16.60
2022-11-20T13:56:02.013Z,18.37
2022-11-20T13:58:36.631Z,17.70
2022-11-20T14:01:11.605Z,18.07
2022-11-20T14:06:32.081Z,17.90
2022-11-20T14:09:00.151Z,17.30
2022-11-20T14:11:28.750Z,17.53
2022-11-20T14:13:56.266Z,19.57
2022-11-20T14:16:24.847Z,19.37
2022-11-20T14:18:52.366Z,18.03
2022-11-20T14:21:23.730Z,17.60
2022-11-20T14:23:53.554Z,19.00
2022-11-20T14:26:21.205Z,19.90
2022-11-20T14:28:55.340Z,19.47
2022-11-20T14:31:27.486Z,20.57
2022-11-20T14:33:55.871Z,18.00
2022-11-20T14:36:25.091Z,18.73
2022-11-20T14:38:53.238Z,19.67
2022-11-20T14:41:22.949Z,18.17
2022-11-20T14:43:52.867Z,18.87
2022-11-20T14:46:20.506Z,19.53
2022-11-20T14:48:52.729Z,18.73
2022-11-20T14:51:28.681Z,19.30
2022-11-20T14:53:56.176Z,18.53
2022-11-20T14:56:24.958Z,18.77
2022-11-20T14:58:59.146Z,19.40
2022-11-20T15:01:27.795Z,18.83
2022-11-20T15:04:04.880Z,18.90
2022-11-20T15:06:32.497Z,17.67
2022-11-20T15:08:59.991Z,17.60
2022-11-20T15:11:30.249Z,18.37
2022-11-20T15:13:58.329Z,18.83
2022-11-20T15:16:26.131Z,18.73
2022-11-20T15:18:53.699Z,16.57
2022-11-20T15:21:21.561Z,19.20
2022-11-20T15:23:49.431Z,17.20
2022-11-20T15:26:26.201Z,17.77
2022-11-20T15:28:54.212Z,18.33
2022-11-20T15:31:23.495Z,18.47
2022-11-20T15:33:51.148Z,19.13
2022-11-20T15:36:18.677Z,17.03
2022-11-20T15:38:51.177Z,16.77
2022-11-20T15:41:19.556Z,17.33
2022-11-20T15:43:47.205Z,17.20
2022-11-20T15:46:16.175Z,16.93
2022-11-20T15:48:48.158Z,17.80
2022-11-20T15:51:23.109Z,16.37
2022-11-20T15:53:50.811Z,17.23
2022-11-20T15:56:18.519Z,16.00
2022-11-20T15:58:46.120Z,17.03
2022-11-20T16:01:14.599Z,16.53
2022-11-20T16:03:42.329Z,17.37
2022-11-20T16:06:09.986Z,16.10
2022-11-20T16:08:37.576Z,18.07
2022-11-20T16:11:05.107Z,18.83
2022-11-20T16:13:33.372Z,18.13
2022-11-20T16:16:02.475Z,18.63
2022-11-20T16:18:29.991Z,16.63
2022-11-20T16:20:57.546Z,16.17
2022-11-20T16:23:25.323Z,14.23
2022-11-20T16:25:53.088Z,15.83
2022-11-20T16:28:20.825Z,16.33
2022-11-20T16:30:48.354Z,16.13
2022-11-20T16:33:17.599Z,15.77
2022-11-20T16:35:45.127Z,16.63
2022-11-20T16:38:12.701Z,15.23
2022-11-20T16:40:40.151Z,16.00
2022-11-20T16:43:11.987Z,15.77
2022-11-20T16:45:42.102Z,16.43
2022-11-20T16:48:12.996Z,14.70
2022-11-20T16:50:46.462Z,17.87
2022-11-20T16:53:14.142Z,15.43
2022-11-20T16:55:41.635Z,17.07
2022-11-20T16:58:09.148Z,16.50
2022-11-20T17:00:37.426Z,16.17
2022-11-20T17:03:05.556Z,15.73
2022-11-20T17:05:33.239Z,15.93
2022-11-20T17:08:00.951Z,16.57
2022-11-20T17:10:28.666Z,14.57
2022-11-20T17:12:56.574Z,16.50
2022-11-20T17:15:24.139Z,15.03
2022-11-20T17:17:51.846Z,15.03
2022-11-20T17:20:19.338Z,16.13
2022-11-20T17:22:46.830Z,17.27
2022-11-20T17:25:14.537Z,15.80
2022-11-20T17:27:42.002Z,14.53
2022-11-20T17:30:09.576Z,14.07
2022-11-20T17:32:38.772Z,14.33
2022-11-20T17:35:06.508Z,11.33
2022-11-20T17:37:34.151Z,13.10
2022-11-20T17:40:01.663Z,11.50
2022-11-20T17:42:29.711Z,11.50
2022-11-20T17:44:57.330Z,10.77
2022-11-20T17:47:25.050Z,10.93
2022-11-20T17:49:52.718Z,12.13
2022-11-20T17:52:20.235Z,10.87
2022-11-20T17:54:47.945Z,9.70
2022-11-20T17:57:15.391Z,10.40
2022-11-20T17:59:42.879Z,10.60
2022-11-20T18:02:10.799Z,10.63
2022-11-20T18:04:38.533Z,10.20
2022-11-20T18:07:05.995Z,10.20
2022-11-20T18:09:33.523Z,10.07
2022-11-20T18:12:01.080Z,8.30
2022-11-20T18:14:28.802Z,9.40
2022-11-20T18:16:57.885Z,8.63
2022-11-20T18:19:29.979Z,9.00
2022-11-20T18:22:00.060Z,7.50
2022-11-20T18:24:27.793Z,7.67
2022-11-20T18:26:55.425Z,6.87
2022-11-20T18:29:23.386Z,7.57
2022-11-20T18:31:51.861Z,5.73
2022-11-20T18:34:19.508Z,5.90
2022-11-20T18:36:47.315Z,5.17
2022-11-20T18:39:15.183Z,6.13
2022-11-20T18:41:42.898Z,5.27
2022-11-20T18:44:15.058Z,5.87
2022-11-20T18:46:42.904Z,5.40
2022-11-20T18:49:10.435Z,6.73
2022-11-20T18:51:38.093Z,5.93
2022-11-20T18:54:06.287Z,6.50
2022-11-20T18:56:34.446Z,7.10
2022-11-20T18:59:02.926Z,6.27
2022-11-20T19:01:30.669Z,5.77
2022-11-20T19:03:58.417Z,5.57
2022-11-20T19:06:26.585Z,4.33
2022-11-20T19:08:54.527Z,4.93
2022-11-20T19:11:22.157Z,4.70
2022-11-20T19:13:49.663Z,4.07
2022-11-20T19:16:18.397Z,4.03
2022-11-20T19:18:46.321Z,3.93
2022-11-20T19:21:16.844Z,4.07
2022-11-20T19:23:44.505Z,4.47
2022-11-20T19:26:12.015Z,5.30
2022-11-20T19:28:39.608Z,4.73
2022-11-20T19:31:08.069Z,6.10
2022-11-20T19:33:36.032Z,5.40
2022-11-20T19:36:09.910Z,6.17
2022-11-20T19:38:37.902Z,5.70
2022-11-20T19:41:06.492Z,5.50
2022-11-20T19:43:34.126Z,5.93
2022-11-20T19:46:02.079Z,5.13
2022-11-20T19:48:36.857Z,6.43
2022-11-20T19:51:15.326Z,6.53
2022-11-20T19:53:49.720Z,5.30
2022-11-20T19:56:17.309Z,5.17
2022-11-20T19:58:44.726Z,5.27
2022-11-20T20:01:12.203Z,5.60
2022-11-20T20:03:40.053Z,6.17
2022-11-20T20:06:09.047Z,6.43
2022-11-20T20:08:36.905Z,6.83
2022-11-20T20:11:30.748Z,6.17
2022-11-20T20:13:58.231Z,5.50
2022-11-20T20:16:26.298Z,7.13
2022-11-20T20:18:59.040Z,6.47
2022-11-20T20:21:26.518Z,6.37
2022-11-20T20:23:54.874Z,6.30
2022-11-20T20:26:23.395Z,7.67
2022-11-20T20:28:51.095Z,5.70
2022-11-20T20:31:20.031Z,7.20
2022-11-20T20:33:47.751Z,7.37
2022-11-20T20:36:16.252Z,6.83
2022-11-20T20:38:43.880Z,6.53
2022-11-20T20:41:11.477Z,6.80
2022-11-20T20:43:39.423Z,7.07
2022-11-20T20:46:08.122Z,7.50
2022-11-20T20:48:35.731Z,7.17
2022-11-20T20:51:03.200Z,7.83
2022-11-20T20:53:31.289Z,7.10
2022-11-20T20:55:59.350Z,6.93
2022-11-20T20:58:27.228Z,7.33
2022-11-20T21:00:55.139Z,8.13
2022-11-20T21:03:22.780Z,6.87
2022-11-20T21:05:55.917Z,8.17
2022-11-20T21:08:23.525Z,7.67
2022-11-20T21:10:51.974Z,8.03
2022-11-20T21:13:19.842Z,7.60
2022-11-20T21:15:48.566Z,8.07
2022-11-20T21:18:19.921Z,8.07
2022-11-20T21:20:47.467Z,7.77
2022-11-20T21:23:14.983Z,8.93
2022-11-20T21:25:42.511Z,9.80
2022-11-20T21:28:13.162Z,10.03
2022-11-20T21:30:44.487Z,9.93
2022-11-20T21:33:11.957Z,10.13
2022-11-20T21:35:39.484Z,11.13
2022-11-20T21:38:06.915Z,10.30
2022-11-20T21:40:34.521Z,10.80
2022-11-20T21:43:01.980Z,9.43
2022-11-20T21:45:29.571Z,9.77
2022-11-20T21:47:57.128Z,9.37
2022-11-20T21:50:24.596Z,9.23
2022-11-20T21:52:52.042Z,7.63
2022-11-20T21:55:19.592Z,7.90
2022-11-20T21:57:47.041Z,7.40
2022-11-20T22:00:14.687Z,7.60
2022-11-20T22:02:42.159Z,6.97
2022-11-20T22:05:10.032Z,6.73
2022-11-20T22:07:37.527Z,7.53
2022-11-20T22:10:05.154Z,6.33
2022-11-20T22:12:32.578Z,5.70
2022-11-20T22:15:00.100Z,6.43
2022-11-20T22:17:27.537Z,4.73
2022-11-20T22:19:55.821Z,4.70
2022-11-20T22:22:23.291Z,5.17
2022-11-20T22:24:50.871Z,4.43
2022-11-20T22:27:18.322Z,5.07
2022-11-20T22:29:45.806Z,6.23
2022-11-20T22:32:13.230Z,4.43
2022-11-20T22:34:40.683Z,4.90
2022-11-20T22:37:08.151Z,5.67
2022-11-20T22:39:37.143Z,4.47
2022-11-20T22:42:04.666Z,4.57
2022-11-20T22:44:32.084Z,5.37
2022-11-20T22:46:59.494Z,5.60
2022-11-20T22:49:27.003Z,4.70
2022-11-20T22:51:54.472Z,3.90
2022-11-20T22:54:22.042Z,4.10
2022-11-20T22:56:49.681Z,3.97
2022-11-20T22:59:17.115Z,4.33
2022-11-20T23:01:44.599Z,5.40
2022-11-20T23:04:12.047Z,4.40
2022-11-20T23:06:39.595Z,5.00
2022-11-20T23:09:08.097Z,5.33
2022-11-20T23:11:35.946Z,7.37
2022-11-20T23:14:04.964Z,11.23
2022-11-20T23:16:32.932Z,13.20
2022-11-20T23:19:08.023Z,15.87
2022-11-20T23:21:36.423Z,20.30
2022-11-20T23:24:04.043Z,20.77
2022-11-20T23:26:33.397Z,24.60
2022-11-20T23:29:01.224Z,21.50
2022-11-20T23:31:29.901Z,19.63
2022-11-20T23:33:57.317Z,22.80
2022-11-20T23:36:24.918Z,19.77
2022-11-20T23:38:52.317Z,19.73
2022-11-20T23:41:19.806Z,19.17
2022-11-20T23:43:47.249Z,16.33
2022-11-20T23:46:16.658Z,18.47
2022-11-20T23:48:45.326Z,20.07
2022-11-20T23:51:13.443Z,17.87
2022-11-20T23:53:41.003Z,15.87
2022-11-20T23:56:08.660Z,19.27
2022-11-20T23:58:37.061Z,21.03
